Time;durP1;ratioP1;P1;durP2;ratioP2;P2;SDS_P1;SDS_P2;PMS_P1;PMS_P2;Temp;Humidity;BMP_temperature;BMP_pressure;BME280_temperature;BME280_humidity;BME280_pressure;Samples;Min_cycle;Max_cycle;Signal;HPM_P1;HPM_P2
2023/04/03 00:03:25;;;;;;;4.03;2.42;;;;;;;;;;8304782;28;20076;-63
2023/04/03 00:07:25;;;;;;;2.20;2.00;;;;;;;;;;8306780;28;20267;-63
2023/04/03 00:11:26;;;;;;;2.15;1.83;;;;;;;;;;8303907;28;20032;-63
2023/04/03 00:15:26;;;;;;;2.03;1.80;;;;;;;;;;8306575;28;20605;-63
2023/04/03 00:19:26;;;;;;;1.65;1.55;;;;;;;;;;8306213;28;20082;-63
2023/04/03 00:23:26;;;;;;;2.67;1.80;;;;;;;;;;8304421;28;20911;-63
2023/04/03 00:27:26;;;;;;;3.38;1.80;;;;;;;;;;8301211;28;20013;-63
2023/04/03 00:31:27;;;;;;;3.15;1.98;;;;;;;;;;8305938;28;20053;-63
2023/04/03 00:35:27;;;;;;;3.15;1.75;;;;;;;;;;8305729;28;20033;-63
2023/04/03 00:39:27;;;;;;;2.85;1.80;;;;;;;;;;8301981;28;20715;-63
2023/04/03 00:43:28;;;;;;;5.32;1.98;;;;;;;;;;8305691;28;20029;-63
2023/04/03 00:47:29;;;;;;;2.87;1.63;;;;;;;;;;8304824;28;20202;-63
2023/04/03 00:51:29;;;;;;;2.65;2.10;;;;;;;;;;8302814;28;20268;-63
2023/04/03 00:55:30;;;;;;;2.30;2.10;;;;;;;;;;8305734;28;20360;-63
2023/04/03 00:59:32;;;;;;;2.40;2.10;;;;;;;;;;8304963;28;20017;-63
2023/04/03 01:03:32;;;;;;;3.70;2.20;;;;;;;;;;8303183;28;20042;-63
2023/04/03 01:07:35;;;;;;;2.75;2.20;;;;;;;;;;8303542;28;20554;-62
2023/04/03 01:11:35;;;;;;;2.05;1.85;;;;;;;;;;8303652;28;20108;-62
2023/04/03 01:15:35;;;;;;;3.58;2.30;;;;;;;;;;8303183;28;20461;-62
2023/04/03 01:19:37;;;;;;;4.20;2.20;;;;;;;;;;8300449;28;20299;-62
2023/04/03 01:23:37;;;;;;;2.13;1.90;;;;;;;;;;8302638;28;20056;-62
2023/04/03 01:27:37;;;;;;;5.43;2.42;;;;;;;;;;8300743;28;20429;-62
2023/04/03 01:31:44;;;;;;;3.35;2.28;;;;;;;;;;8302250;28;20041;-62
2023/04/03 01:35:44;;;;;;;4.15;2.00;;;;;;;;;;8305511;28;20117;-62
2023/04/03 01:39:45;;;;;;;3.70;2.15;;;;;;;;;;8301765;28;20237;-62
2023/04/03 01:43:45;;;;;;;4.10;2.00;;;;;;;;;;8304309;28;20037;-62
2023/04/03 01:47:45;;;;;;;2.20;1.90;;;;;;;;;;8301447;28;20892;-62
2023/04/03 01:51:45;;;;;;;2.15;1.63;;;;;;;;;;8301776;28;20029;-62
2023/04/03 01:55:45;;;;;;;2.03;1.80;;;;;;;;;;8302440;28;20129;-62
2023/04/03 01:59:45;;;;;;;2.40;1.60;;;;;;;;;;8302212;28;20029;-63
2023/04/03 02:03:46;;;;;;;3.83;1.70;;;;;;;;;;8301581;28;20052;-63
2023/04/03 02:07:46;;;;;;;3.75;1.70;;;;;;;;;;8302640;28;21175;-62
2023/04/03 02:11:46;;;;;;;3.33;1.80;;;;;;;;;;8303652;28;20412;-62
2023/04/03 02:15:47;;;;;;;2.75;1.80;;;;;;;;;;8300142;28;20493;-62
2023/04/03 02:19:47;;;;;;;5.53;1.80;;;;;;;;;;8303561;28;20511;-62
2023/04/03 02:23:47;;;;;;;2.63;1.53;;;;;;;;;;8301659;28;20044;-62
2023/04/03 02:27:48;;;;;;;3.67;1.50;;;;;;;;;;8298999;28;20284;-62
2023/04/03 02:31:48;;;;;;;2.20;1.85;;;;;;;;;;8298704;28;20501;-62
2023/04/03 02:35:52;;;;;;;3.03;1.70;;;;;;;;;;8298033;28;20039;-62
2023/04/03 02:39:53;;;;;;;3.30;1.55;;;;;;;;;;8298403;28;20021;-62
2023/04/03 02:43:53;;;;;;;2.67;1.70;;;;;;;;;;8299619;28;20427;-62
2023/04/03 02:47:53;;;;;;;2.08;1.58;;;;;;;;;;8298366;28;20395;-62
2023/04/03 02:51:53;;;;;;;2.13;1.60;;;;;;;;;;8297700;28;20596;-62
2023/04/03 02:55:53;;;;;;;2.58;1.50;;;;;;;;;;8296360;28;20029;-62
2023/04/03 02:59:54;;;;;;;2.03;1.52;;;;;;;;;;8297573;28;20903;-62
2023/04/03 03:03:54;;;;;;;2.10;1.30;;;;;;;;;;8299629;28;20604;-62
2023/04/03 03:07:55;;;;;;;2.25;1.50;;;;;;;;;;8299210;28;20044;-62
2023/04/03 03:11:56;;;;;;;1.40;1.30;;;;;;;;;;8299208;28;20527;-62
2023/04/03 03:15:56;;;;;;;1.50;1.35;;;;;;;;;;8304469;28;20073;-62
2023/04/03 03:19:56;;;;;;;3.97;1.50;;;;;;;;;;8304607;28;20036;-62
2023/04/03 03:23:56;;;;;;;2.97;1.50;;;;;;;;;;8306650;28;20526;-62
2023/04/03 03:27:57;;;;;;;1.85;1.67;;;;;;;;;;8306647;28;20107;-62
2023/04/03 03:31:57;;;;;;;2.53;1.60;;;;;;;;;;8303843;28;20522;-62
2023/04/03 03:35:57;;;;;;;3.97;1.63;;;;;;;;;;8307535;28;20038;-62
2023/04/03 03:39:57;;;;;;;2.42;1.60;;;;;;;;;;8305664;28;20479;-62
2023/04/03 03:43:57;;;;;;;3.15;1.60;;;;;;;;;;8307355;28;20029;-62
2023/04/03 03:47:57;;;;;;;1.58;1.40;;;;;;;;;;8305276;28;20052;-63
2023/04/03 03:51:58;;;;;;;1.40;1.30;;;;;;;;;;8307294;28;20125;-62
2023/04/03 03:55:58;;;;;;;2.97;1.50;;;;;;;;;;8305881;28;20091;-62
2023/04/03 03:59:58;;;;;;;3.78;1.63;;;;;;;;;;8306479;28;20160;-62
2023/04/03 04:03:58;;;;;;;3.83;1.55;;;;;;;;;;8304884;28;20318;-63
2023/04/03 04:07:58;;;;;;;2.58;1.55;;;;;;;;;;8307928;28;20032;-63
2023/04/03 04:11:58;;;;;;;3.38;1.70;;;;;;;;;;8307099;28;20037;-62
2023/04/03 04:15:59;;;;;;;3.20;1.60;;;;;;;;;;8306568;28;20095;-62
2023/04/03 04:19:59;;;;;;;1.50;1.40;;;;;;;;;;8305980;28;20233;-62
2023/04/03 04:23:59;;;;;;;1.90;1.40;;;;;;;;;;8305278;28;20719;-63
2023/04/03 04:27:59;;;;;;;1.67;1.40;;;;;;;;;;8302451;28;20389;-62
2023/04/03 04:32:00;;;;;;;1.92;1.40;;;;;;;;;;8303966;28;20446;-62
2023/04/03 04:36:00;;;;;;;2.42;1.90;;;;;;;;;;8303953;28;20029;-62
2023/04/03 04:40:00;;;;;;;2.03;1.70;;;;;;;;;;8305128;28;20639;-62
2023/04/03 04:44:00;;;;;;;3.72;1.92;;;;;;;;;;8304731;28;20029;-62
2023/04/03 04:48:00;;;;;;;3.88;1.60;;;;;;;;;;8304444;28;20041;-63
2023/04/03 04:52:01;;;;;;;2.50;1.67;;;;;;;;;;8303076;28;20025;-62
2023/04/03 04:56:01;;;;;;;3.15;1.58;;;;;;;;;;8305309;28;20031;-62
2023/04/03 05:00:01;;;;;;;5.05;2.00;;;;;;;;;;8306735;28;20032;-62
2023/04/03 05:04:01;;;;;;;4.10;1.75;;;;;;;;;;8303602;28;20052;-62
2023/04/03 05:08:02;;;;;;;5.60;2.17;;;;;;;;;;8303638;28;20032;-62
2023/04/03 05:12:03;;;;;;;4.65;1.60;;;;;;;;;;8304700;28;20272;-62
2023/04/03 05:16:03;;;;;;;3.80;1.55;;;;;;;;;;8304998;28;20049;-62
2023/04/03 05:20:04;;;;;;;3.42;1.70;;;;;;;;;;8303143;28;20021;-62
2023/04/03 05:24:05;;;;;;;3.10;1.60;;;;;;;;;;8304486;28;20124;-62
2023/04/03 05:28:05;;;;;;;2.60;1.55;;;;;;;;;;8301260;28;20265;-62
2023/04/03 05:32:05;;;;;;;3.47;1.55;;;;;;;;;;8303398;28;20037;-62
2023/04/03 05:36:06;;;;;;;2.95;1.40;;;;;;;;;;8304098;28;20021;-62
2023/04/03 05:40:07;;;;;;;4.82;1.67;;;;;;;;;;8302850;28;20047;-62
2023/04/03 05:44:07;;;;;;;3.65;1.83;;;;;;;;;;8305624;28;20033;-62
2023/04/03 05:48:07;;;;;;;4.57;1.63;;;;;;;;;;8310078;28;20037;-62
2023/04/03 05:52:22;;;;;;;6.15;2.15;;;;;;;;;;8311360;28;20087;-62
2023/04/03 05:56:22;;;;;;;6.97;1.80;;;;;;;;;;8308179;28;20036;-62
2023/04/03 06:00:23;;;;;;;5.75;1.98;;;;;;;;;;8308602;28;20037;-63
2023/04/03 06:04:23;;;;;;;4.55;1.88;;;;;;;;;;8309451;28;20032;-63
2023/04/03 06:08:23;;;;;;;4.68;1.75;;;;;;;;;;8310265;28;20342;-63
2023/04/03 06:12:23;;;;;;;5.90;1.60;;;;;;;;;;8309207;28;20063;-63
2023/04/03 06:16:24;;;;;;;4.80;1.73;;;;;;;;;;8310711;28;20046;-63
2023/04/03 06:20:24;;;;;;;3.92;1.70;;;;;;;;;;8308469;28;20287;-64
2023/04/03 06:24:25;;;;;;;6.00;1.90;;;;;;;;;;8308581;28;20018;-64
2023/04/03 06:28:25;;;;;;;4.07;1.50;;;;;;;;;;8306261;28;20099;-63
2023/04/03 06:32:26;;;;;;;3.65;1.40;;;;;;;;;;8306504;28;20071;-63
2023/04/03 06:36:26;;;;;;;3.22;1.73;;;;;;;;;;8309541;28;20127;-64
2023/04/03 06:40:26;;;;;;;6.75;1.70;;;;;;;;;;8308426;28;20025;-63
2023/04/03 06:44:26;;;;;;;4.20;1.58;;;;;;;;;;8295859;28;20105;-63
2023/04/03 06:48:26;;;;;;;4.20;1.60;;;;;;;;;;8288949;28;20036;-63
2023/04/03 06:52:27;;;;;;;6.25;1.65;;;;;;;;;;8299385;28;20033;-63
2023/04/03 06:56:28;;;;;;;7.63;1.88;;;;;;;;;;8299439;28;20584;-63
2023/04/03 07:00:28;;;;;;;4.80;1.45;;;;;;;;;;8292930;28;20047;-63
2023/04/03 07:04:28;;;;;;;5.35;1.77;;;;;;;;;;8298503;28;20142;-63
2023/04/03 07:08:28;;;;;;;5.30;1.40;;;;;;;;;;8298891;28;20083;-63
2023/04/03 07:12:29;;;;;;;3.97;1.50;;;;;;;;;;8296725;28;20051;-63
2023/04/03 07:16:31;;;;;;;6.75;2.20;;;;;;;;;;8289557;28;20442;-63
2023/04/03 07:20:32;;;;;;;3.10;1.58;;;;;;;;;;8296718;28;20744;-63
2023/04/03 07:24:32;;;;;;;3.92;1.77;;;;;;;;;;8301903;28;20527;-63
2023/04/03 07:28:32;;;;;;;6.53;1.80;;;;;;;;;;8308126;28;20028;-63
2023/04/03 07:32:32;;;;;;;4.03;1.33;;;;;;;;;;8299046;28;20470;-63
2023/04/03 07:36:33;;;;;;;3.90;1.60;;;;;;;;;;8297571;28;20025;-63
2023/04/03 07:40:33;;;;;;;3.95;1.70;;;;;;;;;;8291138;28;20378;-63
2023/04/03 07:44:33;;;;;;;3.67;1.70;;;;;;;;;;8297992;28;20013;-63
2023/04/03 07:48:34;;;;;;;6.57;1.90;;;;;;;;;;8296438;28;20489;-63
2023/04/03 07:52:35;;;;;;;3.60;1.98;;;;;;;;;;8296704;28;20021;-63
2023/04/03 07:56:35;;;;;;;4.20;1.70;;;;;;;;;;8298899;28;20109;-63
2023/04/03 08:00:35;;;;;;;5.68;1.92;;;;;;;;;;8301504;28;20513;-63
2023/04/03 08:04:35;;;;;;;3.83;1.75;;;;;;;;;;8304508;28;20283;-63
2023/04/03 08:08:36;;;;;;;2.60;1.40;;;;;;;;;;8301304;28;20044;-63
2023/04/03 08:12:36;;;;;;;2.67;1.50;;;;;;;;;;8304292;28;20069;-63
2023/04/03 08:16:36;;;;;;;5.47;1.73;;;;;;;;;;8299914;28;20053;-63
2023/04/03 08:20:38;;;;;;;3.53;1.55;;;;;;;;;;8304665;28;20021;-63
2023/04/03 08:24:38;;;;;;;4.43;1.70;;;;;;;;;;8301559;28;20685;-63
2023/04/03 08:28:39;;;;;;;4.63;1.70;;;;;;;;;;8302699;28;20029;-63
2023/04/03 08:32:41;;;;;;;4.35;1.50;;;;;;;;;;8302327;28;20040;-63
2023/04/03 08:36:42;;;;;;;4.90;1.85;;;;;;;;;;8303167;28;20021;-63
2023/04/03 08:40:42;;;;;;;5.25;1.65;;;;;;;;;;8302144;28;20027;-63
2023/04/03 08:44:54;;;;;;;9.13;1.58;;;;;;;;;;8303189;28;20036;-63
2023/04/03 08:48:57;;;;;;;3.97;1.70;;;;;;;;;;8305730;28;20068;-63
2023/04/03 08:52:57;;;;;;;3.80;1.38;;;;;;;;;;8305459;28;20559;-63
2023/04/03 08:56:59;;;;;;;2.75;1.60;;;;;;;;;;8302228;28;20033;-63
2023/04/03 09:01:02;;;;;;;5.82;1.50;;;;;;;;;;8302980;28;20033;-63
2023/04/03 09:05:11;;;;;;;3.47;1.50;;;;;;;;;;8306303;28;20639;-63
2023/04/03 09:09:17;;;;;;;6.38;1.70;;;;;;;;;;8299819;28;20032;-63
2023/04/03 09:13:17;;;;;;;4.80;1.63;;;;;;;;;;8300797;28;20033;-63
2023/04/03 09:17:27;;;;;;;5.90;1.58;;;;;;;;;;8298553;28;20065;-63
2023/04/03 09:21:38;;;;;;;4.18;1.38;;;;;;;;;;8303317;28;20033;-63
2023/04/03 09:25:38;;;;;;;2.72;1.58;;;;;;;;;;8300278;28;20482;-63
2023/04/03 09:29:45;;;;;;;5.57;1.92;;;;;;;;;;8301781;28;20894;-63
2023/04/03 09:33:47;;;;;;;4.32;1.50;;;;;;;;;;8301950;28;20040;-63
2023/04/03 09:37:49;;;;;;;4.80;1.55;;;;;;;;;;8301736;28;20726;-63
2023/04/03 09:42:01;;;;;;;3.80;1.70;;;;;;;;;;8304323;28;20032;-63
2023/04/03 09:46:21;;;;;;;6.47;1.75;;;;;;;;;;8304348;28;20040;-63
2023/04/03 09:50:21;;;;;;;4.05;1.58;;;;;;;;;;8304489;28;20028;-63
2023/04/03 09:54:30;;;;;;;3.78;1.35;;;;;;;;;;8298892;28;20025;-63
2023/04/03 09:58:33;;;;;;;4.97;1.83;;;;;;;;;;8302424;28;21213;-63
2023/04/03 10:02:35;;;;;;;3.30;1.50;;;;;;;;;;8303333;28;20120;-63
2023/04/03 10:06:37;;;;;;;3.17;1.42;;;;;;;;;;8302976;28;20086;-63
2023/04/03 10:10:38;;;;;;;4.05;1.50;;;;;;;;;;8301330;28;20540;-63
2023/04/03 10:14:57;;;;;;;6.18;1.75;;;;;;;;;;8300514;28;20418;-63
2023/04/03 10:19:10;;;;;;;3.13;1.50;;;;;;;;;;8301579;28;20488;-63
2023/04/03 10:23:17;;;;;;;4.10;1.58;;;;;;;;;;8300405;28;21100;-62
2023/04/03 10:27:17;;;;;;;4.10;1.60;;;;;;;;;;8302543;28;20021;-62
2023/04/03 10:31:25;;;;;;;3.88;1.40;;;;;;;;;;8299740;28;20037;-63
2023/04/03 10:35:28;;;;;;;4.25;1.55;;;;;;;;;;8306481;28;20648;-62
2023/04/03 10:39:34;;;;;;;2.83;1.20;;;;;;;;;;8308465;28;20501;-63
2023/04/03 10:43:50;;;;;;;2.75;1.40;;;;;;;;;;8302337;28;20025;-62
2023/04/03 10:47:55;;;;;;;4.18;1.33;;;;;;;;;;8301360;28;20049;-62
2023/04/03 10:52:14;;;;;;;3.58;1.70;;;;;;;;;;8302964;28;20375;-63
2023/04/03 10:56:32;;;;;;;2.45;1.42;;;;;;;;;;8300653;28;20049;-62
2023/04/03 11:00:41;;;;;;;4.13;1.40;;;;;;;;;;8301908;28;20037;-62
2023/04/03 11:04:43;;;;;;;3.70;1.50;;;;;;;;;;8298381;28;20083;-62
2023/04/03 11:08:58;;;;;;;3.72;1.67;;;;;;;;;;8300195;28;20079;-62
2023/04/03 11:13:04;;;;;;;3.92;1.75;;;;;;;;;;8301185;28;20488;-62
2023/04/03 11:17:16;;;;;;;4.03;1.77;;;;;;;;;;8285559;28;20466;-62
2023/04/03 11:21:26;;;;;;;5.32;1.42;;;;;;;;;;8301683;28;20035;-62
2023/04/03 11:25:29;;;;;;;3.10;1.40;;;;;;;;;;8300048;28;20395;-62
2023/04/03 11:29:31;;;;;;;5.25;1.48;;;;;;;;;;8299627;28;20017;-62
2023/04/03 11:33:40;;;;;;;3.63;1.40;;;;;;;;;;8301849;28;20428;-62
2023/04/03 11:37:44;;;;;;;3.53;1.63;;;;;;;;;;8306362;28;20057;-62
2023/04/03 11:41:44;;;;;;;3.70;1.67;;;;;;;;;;8306490;28;20049;-62
2023/04/03 11:45:55;;;;;;;3.72;1.60;;;;;;;;;;8305134;28;20316;-62
2023/04/03 11:50:03;;;;;;;2.58;1.48;;;;;;;;;;8302497;28;20475;-62
2023/04/03 11:54:22;;;;;;;2.20;1.45;;;;;;;;;;8303694;28;20580;-62
2023/04/03 11:58:24;;;;;;;3.42;1.70;;;;;;;;;;8305043;28;20048;-62
2023/04/03 12:02:44;;;;;;;3.25;1.58;;;;;;;;;;8304229;28;20042;-62
2023/04/03 12:06:44;;;;;;;4.32;1.52;;;;;;;;;;8304952;28;20037;-62
2023/04/03 12:11:06;;;;;;;3.97;1.67;;;;;;;;;;8303908;28;20021;-62
2023/04/03 12:15:22;;;;;;;2.47;1.55;;;;;;;;;;8300289;28;20021;-62
2023/04/03 12:19:34;;;;;;;3.28;1.63;;;;;;;;;;8301286;28;20114;-63
2023/04/03 12:23:36;;;;;;;2.47;1.63;;;;;;;;;;8308932;28;20764;-63
2023/04/03 12:27:41;;;;;;;3.95;1.50;;;;;;;;;;8309320;28;20029;-62
2023/04/03 12:31:48;;;;;;;6.70;1.50;;;;;;;;;;8308507;28;20295;-63
2023/04/03 12:35:54;;;;;;;4.30;1.40;;;;;;;;;;8305738;28;20217;-63
2023/04/03 12:40:06;;;;;;;2.55;1.67;;;;;;;;;;8301188;28;20078;-63
2023/04/03 12:44:22;;;;;;;3.33;1.60;;;;;;;;;;8306443;28;20036;-63
2023/04/03 12:48:25;;;;;;;3.38;1.70;;;;;;;;;;8307826;28;20053;-63
2023/04/03 12:52:31;;;;;;;3.45;1.50;;;;;;;;;;8309488;28;20021;-62
2023/04/03 12:56:34;;;;;;;3.40;1.60;;;;;;;;;;8307771;28;20128;-62
2023/04/03 13:00:35;;;;;;;3.35;1.67;;;;;;;;;;8305631;28;20052;-63
2023/04/03 13:04:38;;;;;;;4.82;1.60;;;;;;;;;;8307443;28;20109;-62
2023/04/03 13:08:47;;;;;;;3.58;1.42;;;;;;;;;;8302300;28;20029;-63
2023/04/03 13:12:49;;;;;;;2.92;1.52;;;;;;;;;;8306276;28;20114;-63
2023/04/03 13:16:56;;;;;;;3.97;1.48;;;;;;;;;;8309951;28;20044;-63
2023/04/03 13:21:00;;;;;;;6.97;1.65;;;;;;;;;;8311053;28;20056;-63
2023/04/03 13:25:05;;;;;;;5.75;1.50;;;;;;;;;;8310467;28;20017;-63
2023/04/03 13:29:07;;;;;;;3.17;1.63;;;;;;;;;;8309774;28;20478;-63
2023/04/03 13:33:21;;;;;;;3.55;1.50;;;;;;;;;;8312378;28;20175;-63
2023/04/03 13:37:22;;;;;;;;;;;;;;;;;;8312295;28;20043;-62
2023/04/03 13:41:41;;;;;;;2.45;1.20;;;;;;;;;;8312961;28;20425;-63
2023/04/03 13:45:52;;;;;;;3.22;1.30;;;;;;;;;;8311973;28;20029;-63
2023/04/03 13:50:03;;;;;;;2.85;1.60;;;;;;;;;;8309749;28;20028;-63
2023/04/03 13:54:16;;;;;;;2.42;1.40;;;;;;;;;;8311063;28;20543;-63
2023/04/03 13:58:22;;;;;;;1.92;1.20;;;;;;;;;;8309259;28;20077;-63
2023/04/03 14:02:29;;;;;;;3.20;1.35;;;;;;;;;;8311260;28;20518;-63
2023/04/03 14:06:29;;;;;;;2.85;1.40;;;;;;;;;;8307126;28;20024;-63
2023/04/03 14:10:30;;;;;;;2.15;1.40;;;;;;;;;;8307058;28;20068;-63
2023/04/03 14:14:31;;;;;;;2.95;1.20;;;;;;;;;;8299430;28;20040;-64
2023/04/03 14:18:32;;;;;;;3.20;1.50;;;;;;;;;;8306108;28;20033;-63
2023/04/03 14:22:34;;;;;;;2.23;1.30;;;;;;;;;;8306356;28;20035;-63
2023/04/03 14:26:34;;;;;;;2.85;1.63;;;;;;;;;;8310170;28;20022;-63
2023/04/03 14:30:36;;;;;;;1.58;1.30;;;;;;;;;;8309488;28;20055;-63
2023/04/03 14:34:36;;;;;;;2.78;1.38;;;;;;;;;;8309782;28;21014;-63
2023/04/03 14:38:37;;;;;;;4.28;1.60;;;;;;;;;;8308253;28;20035;-63
2023/04/03 14:42:37;;;;;;;2.47;1.33;;;;;;;;;;8310577;28;20099;-63
2023/04/03 14:46:41;;;;;;;3.80;1.40;;;;;;;;;;8309992;28;20045;-63
2023/04/03 14:50:41;;;;;;;3.47;1.53;;;;;;;;;;8308648;28;20032;-63
2023/04/03 14:54:41;;;;;;;4.32;1.83;;;;;;;;;;8308175;28;20298;-63
2023/04/03 14:58:41;;;;;;;4.18;1.55;;;;;;;;;;8304456;28;20025;-62
2023/04/03 15:02:41;;;;;;;3.15;1.42;;;;;;;;;;8305395;28;20034;-63
2023/04/03 15:06:42;;;;;;;3.00;1.50;;;;;;;;;;8307948;28;20029;-63
2023/04/03 15:10:42;;;;;;;2.33;1.35;;;;;;;;;;8306853;28;20057;-63
2023/04/03 15:14:43;;;;;;;2.17;1.52;;;;;;;;;;8306537;28;20663;-63
2023/04/03 15:18:43;;;;;;;4.20;1.60;;;;;;;;;;8307234;28;20152;-63
2023/04/03 15:22:43;;;;;;;4.88;2.22;;;;;;;;;;8305303;28;20378;-63
2023/04/03 15:26:44;;;;;;;3.88;1.77;;;;;;;;;;8306076;28;20031;-62
2023/04/03 15:30:45;;;;;;;2.38;1.40;;;;;;;;;;8304132;28;20717;-62
2023/04/03 15:34:45;;;;;;;3.60;1.58;;;;;;;;;;8307061;28;20674;-62
2023/04/03 15:38:45;;;;;;;3.47;1.70;;;;;;;;;;8306215;28;20535;-62
2023/04/03 15:42:45;;;;;;;3.17;1.88;;;;;;;;;;8307131;28;20028;-62
2023/04/03 15:46:46;;;;;;;4.28;2.10;;;;;;;;;;8306734;28;20508;-62
2023/04/03 15:50:46;;;;;;;4.78;1.90;;;;;;;;;;8304501;28;20025;-62
2023/04/03 15:54:47;;;;;;;4.50;1.75;;;;;;;;;;8307628;28;20022;-62
2023/04/03 15:58:47;;;;;;;2.15;1.70;;;;;;;;;;8305819;28;20049;-62
2023/04/03 16:02:48;;;;;;;5.85;1.85;;;;;;;;;;8307957;28;20065;-62
2023/04/03 16:06:48;;;;;;;5.35;2.20;;;;;;;;;;8308070;28;20060;-62
2023/04/03 16:10:49;;;;;;;6.47;2.20;;;;;;;;;;8305023;28;20040;-62
2023/04/03 16:14:49;;;;;;;4.20;2.15;;;;;;;;;;8306749;28;20025;-62
2023/04/03 16:18:50;;;;;;;4.15;1.70;;;;;;;;;;8304881;28;20026;-62
2023/04/03 16:22:50;;;;;;;3.88;1.92;;;;;;;;;;8310378;28;20485;-62
2023/04/03 16:26:50;;;;;;;4.73;2.30;;;;;;;;;;8310943;28;20124;-62
2023/04/03 16:30:50;;;;;;;5.38;2.17;;;;;;;;;;8307424;28;20259;-62
2023/04/03 16:34:51;;;;;;;3.25;1.83;;;;;;;;;;8312188;28;20086;-62
2023/04/03 16:38:51;;;;;;;3.03;1.80;;;;;;;;;;8310048;28;20817;-62
2023/04/03 16:42:51;;;;;;;5.28;2.05;;;;;;;;;;8312447;28;20080;-62
2023/04/03 16:46:52;;;;;;;5.57;1.90;;;;;;;;;;8310324;28;20041;-62
2023/04/03 16:50:53;;;;;;;2.83;1.60;;;;;;;;;;8310994;28;21107;-62
2023/04/03 16:54:55;;;;;;;3.95;1.65;;;;;;;;;;8311821;28;20120;-62
2023/04/03 16:58:55;;;;;;;3.35;1.50;;;;;;;;;;8309120;28;20091;-62
2023/04/03 17:02:55;;;;;;;3.33;1.65;;;;;;;;;;8312364;28;20044;-62
2023/04/03 17:06:55;;;;;;;2.85;1.30;;;;;;;;;;8298699;28;20788;-62
2023/04/03 17:10:56;;;;;;;1.73;1.40;;;;;;;;;;8301646;28;20029;-62
2023/04/03 17:14:56;;;;;;;2.30;1.10;;;;;;;;;;8310189;28;20029;-62
2023/04/03 17:18:56;;;;;;;2.73;1.43;;;;;;;;;;8309342;28;20037;-62
2023/04/03 17:22:57;;;;;;;3.58;1.20;;;;;;;;;;8309287;28;20343;-62
2023/04/03 17:26:57;;;;;;;3.13;1.38;;;;;;;;;;8311181;28;20504;-62
2023/04/03 17:30:59;;;;;;;2.65;1.25;;;;;;;;;;8301167;28;20034;-62
2023/04/03 17:34:59;;;;;;;3.72;1.30;;;;;;;;;;8311569;28;20029;-62
2023/04/03 17:39:00;;;;;;;7.65;1.40;;;;;;;;;;8308085;28;20024;-62
2023/04/03 17:43:00;;;;;;;3.15;1.40;;;;;;;;;;8308934;28;20021;-61
2023/04/03 17:47:01;;;;;;;3.60;1.50;;;;;;;;;;8309095;28;20042;-62
2023/04/03 17:51:09;;;;;;;3.38;1.20;;;;;;;;;;8306529;28;20150;-62
2023/04/03 17:55:10;;;;;;;3.90;1.20;;;;;;;;;;8309943;28;20025;-61
2023/04/03 17:59:10;;;;;;;2.95;1.30;;;;;;;;;;8306871;28;20040;-61
2023/04/03 18:03:10;;;;;;;2.55;1.10;;;;;;;;;;8306667;28;21042;-61
2023/04/03 18:07:10;;;;;;;2.30;1.10;;;;;;;;;;8308192;28;20033;-61
2023/04/03 18:11:11;;;;;;;2.30;1.10;;;;;;;;;;8309518;28;20060;-61
2023/04/03 18:15:11;;;;;;;2.30;1.13;;;;;;;;;;8310510;28;20036;-62
2023/04/03 18:19:11;;;;;;;2.23;1.10;;;;;;;;;;8308374;28;20107;-61
2023/04/03 18:23:12;;;;;;;1.50;1.20;;;;;;;;;;8305730;28;20301;-61
2023/04/03 18:27:13;;;;;;;4.65;1.10;;;;;;;;;;8305238;28;20029;-62
2023/04/03 18:31:15;;;;;;;2.28;1.10;;;;;;;;;;8305232;28;20041;-61
2023/04/03 18:35:15;;;;;;;3.00;1.10;;;;;;;;;;8306719;28;20021;-61
2023/04/03 18:39:16;;;;;;;1.77;1.05;;;;;;;;;;8307657;28;20333;-61
2023/04/03 18:43:16;;;;;;;3.10;1.30;;;;;;;;;;8308104;28;20631;-61
2023/04/03 18:47:16;;;;;;;2.90;1.33;;;;;;;;;;8289805;28;20333;-61
2023/04/03 18:51:16;;;;;;;3.53;1.40;;;;;;;;;;8307156;28;20296;-61
2023/04/03 18:55:19;;;;;;;3.05;1.20;;;;;;;;;;8307144;28;20291;-61
2023/04/03 18:59:19;;;;;;;2.50;1.45;;;;;;;;;;8305287;28;20463;-61
2023/04/03 19:03:19;;;;;;;1.45;1.05;;;;;;;;;;8307225;28;20129;-61
2023/04/03 19:07:19;;;;;;;2.97;1.23;;;;;;;;;;8306866;28;20021;-62
2023/04/03 19:11:20;;;;;;;1.95;1.30;;;;;;;;;;8305161;28;20287;-61
2023/04/03 19:15:21;;;;;;;4.07;1.20;;;;;;;;;;8305250;28;20021;-61
2023/04/03 19:19:22;;;;;;;3.20;1.23;;;;;;;;;;8306756;28;20685;-61
2023/04/03 19:23:22;;;;;;;2.00;1.05;;;;;;;;;;8306120;28;20025;-61
2023/04/03 19:27:23;;;;;;;2.67;1.23;;;;;;;;;;8305468;28;20036;-61
2023/04/03 19:31:23;;;;;;;2.80;1.30;;;;;;;;;;8307174;28;20068;-62
2023/04/03 19:35:23;;;;;;;2.87;1.50;;;;;;;;;;8305809;28;20025;-61
2023/04/03 19:39:23;;;;;;;3.17;1.10;;;;;;;;;;8306125;28;20298;-61
2023/04/03 19:43:24;;;;;;;4.07;1.23;;;;;;;;;;8307120;28;20022;-61
2023/04/03 19:47:24;;;;;;;2.15;1.30;;;;;;;;;;8306357;28;20843;-61
2023/04/03 19:51:25;;;;;;;2.42;1.10;;;;;;;;;;8305334;28;20021;-61
2023/04/03 19:55:29;;;;;;;2.57;1.10;;;;;;;;;;8308461;28;20036;-61
2023/04/03 19:59:30;;;;;;;1.45;1.05;;;;;;;;;;8312067;28;20744;-61
2023/04/03 20:03:30;;;;;;;2.63;1.50;;;;;;;;;;8310034;28;20076;-61
2023/04/03 20:07:30;;;;;;;3.97;1.43;;;;;;;;;;8311366;28;20029;-61
2023/04/03 20:11:32;;;;;;;1.48;1.00;;;;;;;;;;8311659;28;20272;-61
2023/04/03 20:15:39;;;;;;;2.90;1.20;;;;;;;;;;8313228;28;20041;-61
2023/04/03 20:19:39;;;;;;;5.55;1.30;;;;;;;;;;8310618;28;20825;-61
2023/04/03 20:23:39;;;;;;;2.15;1.10;;;;;;;;;;8312767;28;20040;-61
2023/04/03 20:27:39;;;;;;;5.82;1.80;;;;;;;;;;8307048;28;20029;-61
2023/04/03 20:31:40;;;;;;;2.42;1.30;;;;;;;;;;8310177;28;20369;-61
2023/04/03 20:35:41;;;;;;;2.30;1.05;;;;;;;;;;8310841;28;20694;-61
2023/04/03 20:39:41;;;;;;;1.70;1.20;;;;;;;;;;8312804;28;20025;-61
2023/04/03 20:43:44;;;;;;;2.97;1.10;;;;;;;;;;8310608;28;20036;-61
2023/04/03 20:47:44;;;;;;;4.10;1.10;;;;;;;;;;8309810;28;21004;-61
2023/04/03 20:51:44;;;;;;;2.83;1.25;;;;;;;;;;8311215;28;20769;-61
2023/04/03 20:55:58;;;;;;;4.13;1.15;;;;;;;;;;8307416;28;20125;-61
2023/04/03 20:59:58;;;;;;;2.60;1.38;;;;;;;;;;8311033;28;20037;-61
2023/04/03 21:04:05;;;;;;;3.67;1.38;;;;;;;;;;8310334;28;20053;-61
2023/04/03 21:08:24;;;;;;;2.60;1.40;;;;;;;;;;8310682;28;20112;-61
2023/04/03 21:12:42;;;;;;;3.20;1.33;;;;;;;;;;8308857;28;20028;-61
2023/04/03 21:16:43;;;;;;;2.28;1.20;;;;;;;;;;8312006;28;20036;-61
2023/04/03 21:20:46;;;;;;;1.75;1.30;;;;;;;;;;8309759;28;20037;-61
2023/04/03 21:24:47;;;;;;;2.03;1.30;;;;;;;;;;8311331;28;20017;-61
2023/04/03 21:28:51;;;;;;;3.53;1.25;;;;;;;;;;8306842;28;20734;-61
2023/04/03 21:32:51;;;;;;;5.50;1.38;;;;;;;;;;8309177;28;20577;-61
2023/04/03 21:36:54;;;;;;;4.28;1.23;;;;;;;;;;8313857;28;20037;-61
2023/04/03 21:40:57;;;;;;;5.63;1.33;;;;;;;;;;8311817;28;20466;-61
2023/04/03 21:44:57;;;;;;;2.30;1.13;;;;;;;;;;8312360;28;20062;-61
2023/04/03 21:48:57;;;;;;;3.13;1.27;;;;;;;;;;8310645;28;20723;-61
2023/04/03 21:52:58;;;;;;;2.97;1.00;;;;;;;;;;8310997;28;20279;-61
2023/04/03 21:56:58;;;;;;;1.58;1.20;;;;;;;;;;8309477;28;20056;-61
2023/04/03 22:01:28;;;;;;;5.18;1.13;;;;;;;;;;8309821;28;20034;-61
2023/04/03 22:05:30;;;;;;;3.97;1.42;;;;;;;;;;8303689;28;20122;-61
2023/04/03 22:09:30;;;;;;;4.43;1.48;;;;;;;;;;8312426;28;20056;-61
2023/04/03 22:13:31;;;;;;;2.20;1.13;;;;;;;;;;8302810;28;20390;-61
2023/04/03 22:17:31;;;;;;;4.63;1.50;;;;;;;;;;8307665;28;20059;-60
2023/04/03 22:21:32;;;;;;;2.47;1.40;;;;;;;;;;8306943;28;20041;-61
2023/04/03 22:25:32;;;;;;;2.00;1.30;;;;;;;;;;8312173;28;20013;-61
2023/04/03 22:29:32;;;;;;;3.95;1.80;;;;;;;;;;8311397;28;20123;-61
2023/04/03 22:33:35;;;;;;;5.35;1.52;;;;;;;;;;8308020;28;20061;-61
2023/04/03 22:37:35;;;;;;;2.20;1.35;;;;;;;;;;8311416;28;20506;-61
2023/04/03 22:41:35;;;;;;;1.30;1.10;;;;;;;;;;8312440;28;20052;-61
2023/04/03 22:45:36;;;;;;;2.47;1.42;;;;;;;;;;8311054;28;20781;-61
2023/04/03 22:49:37;;;;;;;2.20;1.40;;;;;;;;;;8311372;28;20117;-61
2023/04/03 22:53:37;;;;;;;3.28;1.30;;;;;;;;;;8310668;28;20025;-61
2023/04/03 22:57:37;;;;;;;5.22;1.48;;;;;;;;;;8310410;28;20109;-61
2023/04/03 23:01:38;;;;;;;2.80;1.45;;;;;;;;;;8310006;28;20036;-61
2023/04/03 23:05:38;;;;;;;1.42;1.25;;;;;;;;;;8311417;28;20253;-61
2023/04/03 23:09:38;;;;;;;2.35;1.48;;;;;;;;;;8311721;28;20032;-61
2023/04/03 23:13:39;;;;;;;2.65;1.40;;;;;;;;;;8310399;28;20029;-61
2023/04/03 23:17:39;;;;;;;3.25;1.42;;;;;;;;;;8311010;28;20650;-61
2023/04/03 23:21:39;;;;;;;3.23;1.37;;;;;;;;;;8309544;28;20041;-61
2023/04/03 23:25:39;;;;;;;5.23;1.37;;;;;;;;;;8312534;28;20283;-61
2023/04/03 23:29:42;;;;;;;2.58;1.30;;;;;;;;;;8312333;28;20276;-61
2023/04/03 23:33:43;;;;;;;1.80;1.17;;;;;;;;;;8316636;28;20047;-61
2023/04/03 23:37:43;;;;;;;2.88;1.38;;;;;;;;;;8317037;28;20938;-61
2023/04/03 23:41:43;;;;;;;2.70;1.38;;;;;;;;;;8317631;28;20030;-61
2023/04/03 23:45:44;;;;;;;2.63;1.30;;;;;;;;;;8316034;28;20107;-61
2023/04/03 23:49:44;;;;;;;2.95;1.40;;;;;;;;;;8318107;28;20086;-61
2023/04/03 23:53:45;;;;;;;4.38;1.70;;;;;;;;;;8316253;28;20029;-61
2023/04/03 23:57:45;;;;;;;3.58;1.48;;;;;;;;;;8316899;28;20024;-61
